sensor_id;sensor_type;location;lat;lon;timestamp;P1;durP1;ratioP1;P2;durP2;ratioP2
29430;SDS011;16404;49.902;10.074;2023-05-27T00:00:13;13.85;;;4.50;;
29430;SDS011;16404;49.902;10.074;2023-05-27T00:02:58;20.42;;;4.28;;
29430;SDS011;16404;49.902;10.074;2023-05-27T00:05:44;8.73;;;3.70;;
29430;SDS011;16404;49.902;10.074;2023-05-27T00:08:29;15.07;;;4.10;;
29430;SDS011;16404;49.902;10.074;2023-05-27T00:11:13;20.92;;;4.13;;
29430;SDS011;16404;49.902;10.074;2023-05-27T00:13:58;13.93;;;4.38;;
29430;SDS011;16404;49.902;10.074;2023-05-27T00:16:43;16.73;;;4.28;;
29430;SDS011;16404;49.902;10.074;2023-05-27T00:19:28;11.70;;;4.13;;
29430;SDS011;16404;49.902;10.074;2023-05-27T00:24:57;16.25;;;4.15;;
29430;SDS011;16404;49.902;10.074;2023-05-27T00:27:42;17.42;;;4.57;;
29430;SDS011;16404;49.902;10.074;2023-05-27T00:30:26;16.70;;;4.07;;
29430;SDS011;16404;49.902;10.074;2023-05-27T00:33:11;17.83;;;4.95;;
29430;SDS011;16404;49.902;10.074;2023-05-27T00:35:56;16.38;;;4.13;;
29430;SDS011;16404;49.902;10.074;2023-05-27T00:38:40;15.60;;;4.22;;
29430;SDS011;16404;49.902;10.074;2023-05-27T00:41:26;17.98;;;4.40;;
29430;SDS011;16404;49.902;10.074;2023-05-27T00:44:11;16.48;;;3.95;;
29430;SDS011;16404;49.902;10.074;2023-05-27T00:46:55;16.92;;;4.55;;
29430;SDS011;16404;49.902;10.074;2023-05-27T00:49:40;17.65;;;4.18;;
29430;SDS011;16404;49.902;10.074;2023-05-27T00:52:25;11.23;;;3.70;;
29430;SDS011;16404;49.902;10.074;2023-05-27T00:55:09;13.05;;;3.88;;
29430;SDS011;16404;49.902;10.074;2023-05-27T00:57:54;17.35;;;4.00;;
29430;SDS011;16404;49.902;10.074;2023-05-27T01:00:39;14.32;;;4.25;;
29430;SDS011;16404;49.902;10.074;2023-05-27T01:03:23;13.57;;;4.43;;
29430;SDS011;16404;49.902;10.074;2023-05-27T01:06:11;17.17;;;4.00;;
29430;SDS011;16404;49.902;10.074;2023-05-27T01:15:19;14.73;;;3.40;;
29430;SDS011;16404;49.902;10.074;2023-05-27T01:18:04;11.00;;;3.72;;
29430;SDS011;16404;49.902;10.074;2023-05-27T01:20:50;12.90;;;4.35;;
29430;SDS011;16404;49.902;10.074;2023-05-27T01:23:37;13.73;;;3.95;;
29430;SDS011;16404;49.902;10.074;2023-05-27T01:26:26;13.60;;;4.05;;
29430;SDS011;16404;49.902;10.074;2023-05-27T01:29:10;14.70;;;4.18;;
29430;SDS011;16404;49.902;10.074;2023-05-27T01:32:08;16.65;;;4.28;;
29430;SDS011;16404;49.902;10.074;2023-05-27T01:40:55;11.07;;;3.70;;
29430;SDS011;16404;49.902;10.074;2023-05-27T01:43:40;11.95;;;3.95;;
29430;SDS011;16404;49.902;10.074;2023-05-27T01:46:25;18.95;;;3.90;;
29430;SDS011;16404;49.902;10.074;2023-05-27T01:49:10;16.75;;;3.97;;
29430;SDS011;16404;49.902;10.074;2023-05-27T01:51:54;14.80;;;4.10;;
29430;SDS011;16404;49.902;10.074;2023-05-27T01:54:39;12.48;;;3.70;;
29430;SDS011;16404;49.902;10.074;2023-05-27T01:57:25;13.82;;;3.83;;
29430;SDS011;16404;49.902;10.074;2023-05-27T02:00:10;17.67;;;3.85;;
29430;SDS011;16404;49.902;10.074;2023-05-27T02:03:02;18.35;;;4.70;;
29430;SDS011;16404;49.902;10.074;2023-05-27T02:05:47;17.30;;;4.53;;
29430;SDS011;16404;49.902;10.074;2023-05-27T02:08:31;13.50;;;3.65;;
29430;SDS011;16404;49.902;10.074;2023-05-27T02:11:18;14.77;;;4.32;;
29430;SDS011;16404;49.902;10.074;2023-05-27T02:14:03;16.45;;;4.22;;
29430;SDS011;16404;49.902;10.074;2023-05-27T02:16:49;16.77;;;4.07;;
29430;SDS011;16404;49.902;10.074;2023-05-27T02:19:33;12.87;;;3.97;;
29430;SDS011;16404;49.902;10.074;2023-05-27T02:25:03;18.08;;;4.38;;
29430;SDS011;16404;49.902;10.074;2023-05-27T02:27:47;16.48;;;3.78;;
29430;SDS011;16404;49.902;10.074;2023-05-27T02:30:34;15.85;;;4.28;;
29430;SDS011;16404;49.902;10.074;2023-05-27T02:33:18;15.05;;;4.30;;
29430;SDS011;16404;49.902;10.074;2023-05-27T02:36:03;8.32;;;3.67;;
29430;SDS011;16404;49.902;10.074;2023-05-27T02:38:49;15.75;;;4.32;;
29430;SDS011;16404;49.902;10.074;2023-05-27T02:41:34;17.83;;;3.90;;
29430;SDS011;16404;49.902;10.074;2023-05-27T02:44:19;10.13;;;3.85;;
29430;SDS011;16404;49.902;10.074;2023-05-27T02:47:03;13.63;;;4.10;;
29430;SDS011;16404;49.902;10.074;2023-05-27T02:49:48;18.23;;;4.65;;
29430;SDS011;16404;49.902;10.074;2023-05-27T02:52:32;18.00;;;4.40;;
29430;SDS011;16404;49.902;10.074;2023-05-27T02:55:17;11.63;;;3.85;;
29430;SDS011;16404;49.902;10.074;2023-05-27T02:58:02;13.25;;;4.28;;
29430;SDS011;16404;49.902;10.074;2023-05-27T03:00:48;15.50;;;4.38;;
29430;SDS011;16404;49.902;10.074;2023-05-27T03:03:33;19.10;;;4.30;;
29430;SDS011;16404;49.902;10.074;2023-05-27T03:06:18;16.30;;;4.05;;
29430;SDS011;16404;49.902;10.074;2023-05-27T03:09:03;15.55;;;4.00;;
29430;SDS011;16404;49.902;10.074;2023-05-27T03:11:48;12.23;;;4.38;;
29430;SDS011;16404;49.902;10.074;2023-05-27T03:14:32;12.43;;;3.88;;
29430;SDS011;16404;49.902;10.074;2023-05-27T03:17:18;10.65;;;3.72;;
29430;SDS011;16404;49.902;10.074;2023-05-27T03:20:04;15.43;;;4.10;;
29430;SDS011;16404;49.902;10.074;2023-05-27T03:22:51;10.77;;;3.60;;
29430;SDS011;16404;49.902;10.074;2023-05-27T03:25:36;15.82;;;4.20;;
29430;SDS011;16404;49.902;10.074;2023-05-27T03:28:23;16.92;;;4.07;;
29430;SDS011;16404;49.902;10.074;2023-05-27T03:31:09;17.70;;;4.43;;
29430;SDS011;16404;49.902;10.074;2023-05-27T03:34:13;11.88;;;4.30;;
29430;SDS011;16404;49.902;10.074;2023-05-27T03:36:58;17.52;;;4.00;;
29430;SDS011;16404;49.902;10.074;2023-05-27T03:39:59;17.15;;;4.00;;
29430;SDS011;16404;49.902;10.074;2023-05-27T03:42:45;17.10;;;4.10;;
29430;SDS011;16404;49.902;10.074;2023-05-27T03:45:33;13.23;;;3.83;;
29430;SDS011;16404;49.902;10.074;2023-05-27T03:48:19;16.40;;;4.38;;
29430;SDS011;16404;49.902;10.074;2023-05-27T03:51:03;14.73;;;4.32;;
29430;SDS011;16404;49.902;10.074;2023-05-27T03:53:48;13.32;;;4.15;;
29430;SDS011;16404;49.902;10.074;2023-05-27T03:56:33;25.27;;;4.97;;
29430;SDS011;16404;49.902;10.074;2023-05-27T03:59:17;20.52;;;4.47;;
29430;SDS011;16404;49.902;10.074;2023-05-27T04:02:02;13.98;;;3.97;;
29430;SDS011;16404;49.902;10.074;2023-05-27T04:04:47;12.20;;;3.75;;
29430;SDS011;16404;49.902;10.074;2023-05-27T04:07:32;13.43;;;4.35;;
29430;SDS011;16404;49.902;10.074;2023-05-27T04:10:17;16.60;;;3.88;;
29430;SDS011;16404;49.902;10.074;2023-05-27T04:13:01;16.02;;;4.05;;
29430;SDS011;16404;49.902;10.074;2023-05-27T04:15:46;20.27;;;4.80;;
29430;SDS011;16404;49.902;10.074;2023-05-27T04:18:32;18.08;;;4.80;;
29430;SDS011;16404;49.902;10.074;2023-05-27T04:21:18;19.60;;;4.25;;
29430;SDS011;16404;49.902;10.074;2023-05-27T04:24:02;14.85;;;4.25;;
29430;SDS011;16404;49.902;10.074;2023-05-27T04:26:49;13.30;;;3.97;;
29430;SDS011;16404;49.902;10.074;2023-05-27T04:29:35;15.40;;;4.30;;
29430;SDS011;16404;49.902;10.074;2023-05-27T04:32:19;13.20;;;4.03;;
29430;SDS011;16404;49.902;10.074;2023-05-27T04:35:05;14.50;;;3.85;;
29430;SDS011;16404;49.902;10.074;2023-05-27T04:37:53;18.55;;;3.88;;
29430;SDS011;16404;49.902;10.074;2023-05-27T04:40:38;15.27;;;3.83;;
29430;SDS011;16404;49.902;10.074;2023-05-27T04:43:54;14.47;;;4.23;;
29430;SDS011;16404;49.902;10.074;2023-05-27T04:46:45;17.50;;;3.83;;
29430;SDS011;16404;49.902;10.074;2023-05-27T04:49:32;19.65;;;4.13;;
29430;SDS011;16404;49.902;10.074;2023-05-27T04:52:18;13.82;;;4.15;;
29430;SDS011;16404;49.902;10.074;2023-05-27T04:55:06;11.80;;;3.67;;
29430;SDS011;16404;49.902;10.074;2023-05-27T04:57:57;14.40;;;3.53;;
29430;SDS011;16404;49.902;10.074;2023-05-27T05:00:42;17.98;;;4.30;;
29430;SDS011;16404;49.902;10.074;2023-05-27T05:03:38;15.68;;;3.33;;
29430;SDS011;16404;49.902;10.074;2023-05-27T05:06:35;13.05;;;3.70;;
29430;SDS011;16404;49.902;10.074;2023-05-27T05:09:21;15.43;;;3.77;;
29430;SDS011;16404;49.902;10.074;2023-05-27T05:12:07;17.90;;;4.40;;
29430;SDS011;16404;49.902;10.074;2023-05-27T05:14:57;13.77;;;4.30;;
29430;SDS011;16404;49.902;10.074;2023-05-27T05:17:43;16.75;;;3.72;;
29430;SDS011;16404;49.902;10.074;2023-05-27T05:20:29;14.15;;;3.88;;
29430;SDS011;16404;49.902;10.074;2023-05-27T05:23:15;17.95;;;4.00;;
29430;SDS011;16404;49.902;10.074;2023-05-27T05:26:01;16.70;;;4.30;;
29430;SDS011;16404;49.902;10.074;2023-05-27T05:28:51;16.42;;;4.18;;
29430;SDS011;16404;49.902;10.074;2023-05-27T05:31:37;12.63;;;3.35;;
29430;SDS011;16404;49.902;10.074;2023-05-27T05:34:22;12.83;;;3.70;;
29430;SDS011;16404;49.902;10.074;2023-05-27T05:37:06;12.27;;;3.45;;
29430;SDS011;16404;49.902;10.074;2023-05-27T05:39:51;9.63;;;3.33;;
29430;SDS011;16404;49.902;10.074;2023-05-27T05:42:37;13.18;;;3.53;;
29430;SDS011;16404;49.902;10.074;2023-05-27T05:45:22;14.48;;;4.03;;
29430;SDS011;16404;49.902;10.074;2023-05-27T05:48:07;11.48;;;3.40;;
29430;SDS011;16404;49.902;10.074;2023-05-27T05:50:53;12.30;;;3.55;;
29430;SDS011;16404;49.902;10.074;2023-05-27T05:53:37;17.27;;;4.18;;
29430;SDS011;16404;49.902;10.074;2023-05-27T05:56:22;14.32;;;3.50;;
29430;SDS011;16404;49.902;10.074;2023-05-27T05:59:07;13.57;;;3.40;;
29430;SDS011;16404;49.902;10.074;2023-05-27T06:01:52;13.00;;;3.60;;
29430;SDS011;16404;49.902;10.074;2023-05-27T06:04:39;11.40;;;3.35;;
29430;SDS011;16404;49.902;10.074;2023-05-27T06:07:24;16.53;;;4.27;;
29430;SDS011;16404;49.902;10.074;2023-05-27T06:10:16;20.27;;;4.05;;
29430;SDS011;16404;49.902;10.074;2023-05-27T06:15:46;16.55;;;3.53;;
29430;SDS011;16404;49.902;10.074;2023-05-27T06:18:31;12.80;;;3.75;;
29430;SDS011;16404;49.902;10.074;2023-05-27T06:21:16;17.45;;;4.18;;
29430;SDS011;16404;49.902;10.074;2023-05-27T06:24:30;15.50;;;3.75;;
29430;SDS011;16404;49.902;10.074;2023-05-27T06:27:29;14.48;;;3.70;;
29430;SDS011;16404;49.902;10.074;2023-05-27T06:30:14;13.50;;;3.35;;
29430;SDS011;16404;49.902;10.074;2023-05-27T06:33:02;11.40;;;3.22;;
29430;SDS011;16404;49.902;10.074;2023-05-27T06:35:49;14.73;;;3.53;;
29430;SDS011;16404;49.902;10.074;2023-05-27T06:38:34;14.73;;;3.50;;
29430;SDS011;16404;49.902;10.074;2023-05-27T06:44:20;14.63;;;3.28;;
29430;SDS011;16404;49.902;10.074;2023-05-27T06:47:13;14.25;;;3.22;;
29430;SDS011;16404;49.902;10.074;2023-05-27T06:50:02;14.05;;;3.30;;
29430;SDS011;16404;49.902;10.074;2023-05-27T06:52:47;12.73;;;3.10;;
29430;SDS011;16404;49.902;10.074;2023-05-27T06:55:48;10.88;;;3.28;;
29430;SDS011;16404;49.902;10.074;2023-05-27T06:58:52;10.82;;;3.30;;
29430;SDS011;16404;49.902;10.074;2023-05-27T07:01:38;11.93;;;3.47;;
29430;SDS011;16404;49.902;10.074;2023-05-27T07:04:26;13.73;;;3.05;;
29430;SDS011;16404;49.902;10.074;2023-05-27T07:07:16;14.57;;;3.08;;
29430;SDS011;16404;49.902;10.074;2023-05-27T07:10:01;13.88;;;3.70;;
29430;SDS011;16404;49.902;10.074;2023-05-27T07:12:46;13.90;;;2.88;;
29430;SDS011;16404;49.902;10.074;2023-05-27T07:15:45;12.40;;;3.45;;
29430;SDS011;16404;49.902;10.074;2023-05-27T07:18:30;11.88;;;3.55;;
29430;SDS011;16404;49.902;10.074;2023-05-27T07:21:17;12.05;;;2.92;;
29430;SDS011;16404;49.902;10.074;2023-05-27T07:24:02;17.55;;;4.32;;
29430;SDS011;16404;49.902;10.074;2023-05-27T07:26:50;16.90;;;3.60;;
29430;SDS011;16404;49.902;10.074;2023-05-27T07:29:38;17.13;;;3.45;;
29430;SDS011;16404;49.902;10.074;2023-05-27T07:32:34;12.25;;;3.33;;
29430;SDS011;16404;49.902;10.074;2023-05-27T07:35:18;11.90;;;2.78;;
29430;SDS011;16404;49.902;10.074;2023-05-27T07:38:03;13.32;;;3.00;;
29430;SDS011;16404;49.902;10.074;2023-05-27T07:40:48;15.07;;;3.70;;
29430;SDS011;16404;49.902;10.074;2023-05-27T07:43:33;13.70;;;3.28;;
29430;SDS011;16404;49.902;10.074;2023-05-27T07:49:02;13.45;;;3.60;;
29430;SDS011;16404;49.902;10.074;2023-05-27T07:51:48;17.48;;;3.75;;
29430;SDS011;16404;49.902;10.074;2023-05-27T07:54:33;12.00;;;3.40;;
29430;SDS011;16404;49.902;10.074;2023-05-27T07:57:17;13.13;;;3.30;;
29430;SDS011;16404;49.902;10.074;2023-05-27T08:00:02;10.77;;;3.00;;
29430;SDS011;16404;49.902;10.074;2023-05-27T08:03:09;17.13;;;3.35;;
29430;SDS011;16404;49.902;10.074;2023-05-27T08:06:15;12.63;;;3.70;;
29430;SDS011;16404;49.902;10.074;2023-05-27T08:09:19;16.45;;;3.40;;
29430;SDS011;16404;49.902;10.074;2023-05-27T08:12:22;12.40;;;3.42;;
29430;SDS011;16404;49.902;10.074;2023-05-27T08:15:15;11.52;;;3.10;;
29430;SDS011;16404;49.902;10.074;2023-05-27T08:18:26;13.00;;;3.22;;
29430;SDS011;16404;49.902;10.074;2023-05-27T08:21:26;13.30;;;3.10;;
29430;SDS011;16404;49.902;10.074;2023-05-27T08:24:37;11.88;;;3.13;;
29430;SDS011;16404;49.902;10.074;2023-05-27T08:27:50;9.57;;;3.22;;
29430;SDS011;16404;49.902;10.074;2023-05-27T08:30:55;15.68;;;3.45;;
29430;SDS011;16404;49.902;10.074;2023-05-27T08:33:44;13.63;;;3.10;;
29430;SDS011;16404;49.902;10.074;2023-05-27T08:36:29;15.88;;;3.15;;
29430;SDS011;16404;49.902;10.074;2023-05-27T08:39:16;15.85;;;3.38;;
29430;SDS011;16404;49.902;10.074;2023-05-27T08:42:08;14.18;;;3.25;;
29430;SDS011;16404;49.902;10.074;2023-05-27T08:47:38;17.42;;;3.83;;
29430;SDS011;16404;49.902;10.074;2023-05-27T08:50:26;12.23;;;3.45;;
29430;SDS011;16404;49.902;10.074;2023-05-27T08:53:11;11.48;;;3.58;;
29430;SDS011;16404;49.902;10.074;2023-05-27T08:55:56;13.30;;;3.20;;
29430;SDS011;16404;49.902;10.074;2023-05-27T08:58:43;12.63;;;3.28;;
29430;SDS011;16404;49.902;10.074;2023-05-27T09:01:27;12.93;;;3.28;;
29430;SDS011;16404;49.902;10.074;2023-05-27T09:04:13;9.73;;;2.97;;
29430;SDS011;16404;49.902;10.074;2023-05-27T09:06:58;25.10;;;3.28;;
29430;SDS011;16404;49.902;10.074;2023-05-27T09:09:42;12.00;;;3.35;;
29430;SDS011;16404;49.902;10.074;2023-05-27T09:12:37;13.82;;;3.75;;
29430;SDS011;16404;49.902;10.074;2023-05-27T09:15:25;12.48;;;3.20;;
29430;SDS011;16404;49.902;10.074;2023-05-27T09:18:11;13.32;;;3.65;;
29430;SDS011;16404;49.902;10.074;2023-05-27T09:20:55;12.45;;;3.05;;
29430;SDS011;16404;49.902;10.074;2023-05-27T09:23:40;10.65;;;2.95;;
29430;SDS011;16404;49.902;10.074;2023-05-27T09:26:26;16.70;;;3.60;;
29430;SDS011;16404;49.902;10.074;2023-05-27T09:29:11;14.23;;;3.15;;
29430;SDS011;16404;49.902;10.074;2023-05-27T09:31:56;15.75;;;3.47;;
29430;SDS011;16404;49.902;10.074;2023-05-27T09:34:40;18.35;;;3.30;;
29430;SDS011;16404;49.902;10.074;2023-05-27T09:37:29;20.20;;;3.88;;
29430;SDS011;16404;49.902;10.074;2023-05-27T09:40:18;13.15;;;3.42;;
29430;SDS011;16404;49.902;10.074;2023-05-27T09:43:02;10.57;;;3.40;;
29430;SDS011;16404;49.902;10.074;2023-05-27T09:45:47;13.57;;;3.00;;
29430;SDS011;16404;49.902;10.074;2023-05-27T09:48:33;14.68;;;3.50;;
29430;SDS011;16404;49.902;10.074;2023-05-27T09:51:18;11.07;;;3.58;;
29430;SDS011;16404;49.902;10.074;2023-05-27T09:54:04;15.30;;;3.42;;
29430;SDS011;16404;49.902;10.074;2023-05-27T09:56:49;12.32;;;3.33;;
29430;SDS011;16404;49.902;10.074;2023-05-27T09:59:36;14.50;;;3.22;;
29430;SDS011;16404;49.902;10.074;2023-05-27T10:02:22;10.82;;;3.25;;
29430;SDS011;16404;49.902;10.074;2023-05-27T10:07:52;10.77;;;3.03;;
29430;SDS011;16404;49.902;10.074;2023-05-27T10:10:37;7.43;;;2.92;;
29430;SDS011;16404;49.902;10.074;2023-05-27T10:13:23;11.20;;;3.35;;
29430;SDS011;16404;49.902;10.074;2023-05-27T10:16:17;11.02;;;2.75;;
29430;SDS011;16404;49.902;10.074;2023-05-27T10:19:09;13.35;;;3.22;;
29430;SDS011;16404;49.902;10.074;2023-05-27T10:21:54;8.43;;;3.03;;
29430;SDS011;16404;49.902;10.074;2023-05-27T10:24:39;13.40;;;3.28;;
29430;SDS011;16404;49.902;10.074;2023-05-27T10:27:24;12.95;;;3.40;;
29430;SDS011;16404;49.902;10.074;2023-05-27T10:30:08;7.68;;;3.10;;
29430;SDS011;16404;49.902;10.074;2023-05-27T10:32:53;8.48;;;3.20;;
29430;SDS011;16404;49.902;10.074;2023-05-27T10:35:38;17.13;;;3.70;;
29430;SDS011;16404;49.902;10.074;2023-05-27T10:38:24;8.65;;;3.22;;
29430;SDS011;16404;49.902;10.074;2023-05-27T10:41:10;8.43;;;2.53;;
29430;SDS011;16404;49.902;10.074;2023-05-27T10:43:54;13.50;;;3.05;;
29430;SDS011;16404;49.902;10.074;2023-05-27T10:46:41;12.95;;;3.00;;
29430;SDS011;16404;49.902;10.074;2023-05-27T10:49:27;7.18;;;2.95;;
29430;SDS011;16404;49.902;10.074;2023-05-27T10:52:16;10.82;;;3.38;;
29430;SDS011;16404;49.902;10.074;2023-05-27T10:55:01;9.13;;;3.00;;
29430;SDS011;16404;49.902;10.074;2023-05-27T10:57:46;47.22;;;4.18;;
29430;SDS011;16404;49.902;10.074;2023-05-27T11:00:31;25.88;;;3.13;;
29430;SDS011;16404;49.902;10.074;2023-05-27T11:06:07;11.23;;;3.08;;
29430;SDS011;16404;49.902;10.074;2023-05-27T11:11:37;13.55;;;3.55;;
29430;SDS011;16404;49.902;10.074;2023-05-27T11:14:22;14.18;;;3.28;;
29430;SDS011;16404;49.902;10.074;2023-05-27T11:17:11;12.20;;;3.13;;
29430;SDS011;16404;49.902;10.074;2023-05-27T11:19:56;10.55;;;2.70;;
29430;SDS011;16404;49.902;10.074;2023-05-27T11:22:48;9.57;;;3.03;;
29430;SDS011;16404;49.902;10.074;2023-05-27T11:25:41;7.97;;;3.17;;
29430;SDS011;16404;49.902;10.074;2023-05-27T11:28:26;9.95;;;2.92;;
29430;SDS011;16404;49.902;10.074;2023-05-27T11:31:10;10.10;;;3.53;;
29430;SDS011;16404;49.902;10.074;2023-05-27T11:33:55;8.55;;;3.00;;
29430;SDS011;16404;49.902;10.074;2023-05-27T11:36:40;13.15;;;3.38;;
29430;SDS011;16404;49.902;10.074;2023-05-27T11:39:28;9.82;;;2.80;;
29430;SDS011;16404;49.902;10.074;2023-05-27T11:42:12;13.50;;;3.47;;
29430;SDS011;16404;49.902;10.074;2023-05-27T11:44:57;11.95;;;3.53;;
29430;SDS011;16404;49.902;10.074;2023-05-27T11:47:43;10.75;;;3.28;;
29430;SDS011;16404;49.902;10.074;2023-05-27T11:50:30;16.35;;;3.00;;
29430;SDS011;16404;49.902;10.074;2023-05-27T11:53:15;13.27;;;3.30;;
29430;SDS011;16404;49.902;10.074;2023-05-27T11:55:59;11.48;;;3.00;;
29430;SDS011;16404;49.902;10.074;2023-05-27T11:58:44;12.25;;;3.40;;
29430;SDS011;16404;49.902;10.074;2023-05-27T12:01:29;10.35;;;3.25;;
29430;SDS011;16404;49.902;10.074;2023-05-27T12:06:58;11.15;;;3.15;;
29430;SDS011;16404;49.902;10.074;2023-05-27T12:09:44;18.65;;;4.38;;
29430;SDS011;16404;49.902;10.074;2023-05-27T12:12:29;12.30;;;3.28;;
29430;SDS011;16404;49.902;10.074;2023-05-27T12:15:17;12.68;;;3.20;;
29430;SDS011;16404;49.902;10.074;2023-05-27T12:18:02;9.15;;;3.03;;
29430;SDS011;16404;49.902;10.074;2023-05-27T12:20:47;9.02;;;3.38;;
29430;SDS011;16404;49.902;10.074;2023-05-27T12:23:31;11.02;;;2.90;;
29430;SDS011;16404;49.902;10.074;2023-05-27T12:26:16;9.77;;;2.97;;
29430;SDS011;16404;49.902;10.074;2023-05-27T12:29:01;10.45;;;3.20;;
29430;SDS011;16404;49.902;10.074;2023-05-27T12:31:45;9.10;;;2.63;;
29430;SDS011;16404;49.902;10.074;2023-05-27T12:34:30;12.35;;;3.22;;
29430;SDS011;16404;49.902;10.074;2023-05-27T12:37:14;10.35;;;3.38;;
29430;SDS011;16404;49.902;10.074;2023-05-27T12:42:44;11.82;;;3.47;;
29430;SDS011;16404;49.902;10.074;2023-05-27T12:45:29;10.75;;;2.90;;
29430;SDS011;16404;49.902;10.074;2023-05-27T12:48:14;9.38;;;2.95;;
29430;SDS011;16404;49.902;10.074;2023-05-27T12:50:59;9.98;;;3.00;;
29430;SDS011;16404;49.902;10.074;2023-05-27T12:53:44;9.30;;;3.30;;
29430;SDS011;16404;49.902;10.074;2023-05-27T12:56:28;11.02;;;3.00;;
29430;SDS011;16404;49.902;10.074;2023-05-27T12:59:13;10.43;;;3.08;;
29430;SDS011;16404;49.902;10.074;2023-05-27T13:01:58;8.18;;;3.15;;
29430;SDS011;16404;49.902;10.074;2023-05-27T13:04:42;11.55;;;2.75;;
29430;SDS011;16404;49.902;10.074;2023-05-27T13:07:27;11.02;;;3.28;;
29430;SDS011;16404;49.902;10.074;2023-05-27T13:10:13;8.63;;;2.88;;
29430;SDS011;16404;49.902;10.074;2023-05-27T13:12:59;7.50;;;3.03;;
29430;SDS011;16404;49.902;10.074;2023-05-27T13:15:44;9.13;;;3.10;;
29430;SDS011;16404;49.902;10.074;2023-05-27T13:18:29;6.60;;;2.60;;
29430;SDS011;16404;49.902;10.074;2023-05-27T13:21:13;11.73;;;3.20;;
29430;SDS011;16404;49.902;10.074;2023-05-27T13:23:58;7.65;;;2.65;;
29430;SDS011;16404;49.902;10.074;2023-05-27T13:26:42;11.63;;;3.05;;
29430;SDS011;16404;49.902;10.074;2023-05-27T13:29:27;6.22;;;2.53;;
29430;SDS011;16404;49.902;10.074;2023-05-27T13:32:12;9.18;;;3.00;;
29430;SDS011;16404;49.902;10.074;2023-05-27T13:34:58;9.07;;;2.80;;
29430;SDS011;16404;49.902;10.074;2023-05-27T13:37:42;7.90;;;2.47;;
29430;SDS011;16404;49.902;10.074;2023-05-27T13:40:27;9.38;;;2.83;;
29430;SDS011;16404;49.902;10.074;2023-05-27T13:43:12;12.43;;;2.85;;
29430;SDS011;16404;49.902;10.074;2023-05-27T13:45:56;7.45;;;2.78;;
29430;SDS011;16404;49.902;10.074;2023-05-27T13:48:41;7.05;;;2.38;;
29430;SDS011;16404;49.902;10.074;2023-05-27T13:51:25;8.70;;;2.67;;
29430;SDS011;16404;49.902;10.074;2023-05-27T13:54:10;8.07;;;2.50;;
29430;SDS011;16404;49.902;10.074;2023-05-27T13:56:55;7.75;;;2.72;;
29430;SDS011;16404;49.902;10.074;2023-05-27T13:59:39;10.23;;;2.90;;
29430;SDS011;16404;49.902;10.074;2023-05-27T14:02:24;7.47;;;2.95;;
29430;SDS011;16404;49.902;10.074;2023-05-27T14:05:09;7.25;;;2.45;;
29430;SDS011;16404;49.902;10.074;2023-05-27T14:07:54;10.40;;;3.35;;
29430;SDS011;16404;49.902;10.074;2023-05-27T14:10:39;9.75;;;3.00;;
29430;SDS011;16404;49.902;10.074;2023-05-27T14:13:23;6.45;;;2.80;;
29430;SDS011;16404;49.902;10.074;2023-05-27T14:16:08;9.50;;;2.60;;
29430;SDS011;16404;49.902;10.074;2023-05-27T14:18:53;8.00;;;2.63;;
29430;SDS011;16404;49.902;10.074;2023-05-27T14:21:37;8.70;;;2.83;;
29430;SDS011;16404;49.902;10.074;2023-05-27T14:24:22;7.18;;;2.70;;
29430;SDS011;16404;49.902;10.074;2023-05-27T14:27:07;8.02;;;2.95;;
29430;SDS011;16404;49.902;10.074;2023-05-27T14:29:51;9.38;;;2.92;;
29430;SDS011;16404;49.902;10.074;2023-05-27T14:32:36;7.30;;;2.58;;
29430;SDS011;16404;49.902;10.074;2023-05-27T14:35:20;18.10;;;2.70;;
29430;SDS011;16404;49.902;10.074;2023-05-27T14:38:05;10.40;;;2.97;;
29430;SDS011;16404;49.902;10.074;2023-05-27T14:40:50;6.05;;;2.40;;
29430;SDS011;16404;49.902;10.074;2023-05-27T14:43:35;7.82;;;2.65;;
29430;SDS011;16404;49.902;10.074;2023-05-27T14:46:20;11.65;;;3.00;;
29430;SDS011;16404;49.902;10.074;2023-05-27T14:49:04;10.00;;;3.00;;
29430;SDS011;16404;49.902;10.074;2023-05-27T14:51:49;6.95;;;2.45;;
29430;SDS011;16404;49.902;10.074;2023-05-27T14:54:33;9.98;;;3.20;;
29430;SDS011;16404;49.902;10.074;2023-05-27T14:57:18;5.63;;;2.33;;
29430;SDS011;16404;49.902;10.074;2023-05-27T15:00:03;9.82;;;2.60;;
29430;SDS011;16404;49.902;10.074;2023-05-27T15:02:49;8.63;;;2.58;;
29430;SDS011;16404;49.902;10.074;2023-05-27T15:05:33;8.98;;;3.10;;
29430;SDS011;16404;49.902;10.074;2023-05-27T15:08:19;7.57;;;2.70;;
29430;SDS011;16404;49.902;10.074;2023-05-27T15:11:04;8.63;;;2.60;;
29430;SDS011;16404;49.902;10.074;2023-05-27T15:13:48;9.73;;;2.38;;
29430;SDS011;16404;49.902;10.074;2023-05-27T15:16:33;8.32;;;2.75;;
29430;SDS011;16404;49.902;10.074;2023-05-27T15:19:17;6.97;;;2.40;;
29430;SDS011;16404;49.902;10.074;2023-05-27T15:22:03;6.38;;;2.47;;
29430;SDS011;16404;49.902;10.074;2023-05-27T15:27:32;22.60;;;2.72;;
29430;SDS011;16404;49.902;10.074;2023-05-27T15:30:16;6.40;;;2.40;;
29430;SDS011;16404;49.902;10.074;2023-05-27T15:33:01;6.55;;;2.50;;
29430;SDS011;16404;49.902;10.074;2023-05-27T15:35:46;6.82;;;2.65;;
29430;SDS011;16404;49.902;10.074;2023-05-27T15:38:32;6.18;;;2.50;;
29430;SDS011;16404;49.902;10.074;2023-05-27T15:41:16;4.03;;;1.52;;
29430;SDS011;16404;49.902;10.074;2023-05-27T15:44:01;5.00;;;2.13;;
29430;SDS011;16404;49.902;10.074;2023-05-27T15:46:46;4.28;;;2.13;;
29430;SDS011;16404;49.902;10.074;2023-05-27T15:49:31;8.65;;;2.83;;
29430;SDS011;16404;49.902;10.074;2023-05-27T15:52:15;6.65;;;2.50;;
29430;SDS011;16404;49.902;10.074;2023-05-27T15:55:00;7.47;;;2.67;;
29430;SDS011;16404;49.902;10.074;2023-05-27T15:57:45;5.40;;;2.22;;
29430;SDS011;16404;49.902;10.074;2023-05-27T16:00:29;5.65;;;2.78;;
29430;SDS011;16404;49.902;10.074;2023-05-27T16:03:14;4.32;;;2.35;;
29430;SDS011;16404;49.902;10.074;2023-05-27T16:05:58;7.88;;;3.10;;
29430;SDS011;16404;49.902;10.074;2023-05-27T16:08:43;5.45;;;2.47;;
29430;SDS011;16404;49.902;10.074;2023-05-27T16:11:28;6.85;;;2.63;;
29430;SDS011;16404;49.902;10.074;2023-05-27T16:14:12;8.25;;;2.53;;
29430;SDS011;16404;49.902;10.074;2023-05-27T16:16:57;4.10;;;2.15;;
29430;SDS011;16404;49.902;10.074;2023-05-27T16:19:42;7.38;;;2.65;;
29430;SDS011;16404;49.902;10.074;2023-05-27T16:22:26;7.10;;;2.30;;
29430;SDS011;16404;49.902;10.074;2023-05-27T16:25:10;6.13;;;2.45;;
29430;SDS011;16404;49.902;10.074;2023-05-27T16:27:55;5.85;;;2.58;;
29430;SDS011;16404;49.902;10.074;2023-05-27T16:30:40;8.18;;;2.70;;
29430;SDS011;16404;49.902;10.074;2023-05-27T16:33:24;6.25;;;2.65;;
29430;SDS011;16404;49.902;10.074;2023-05-27T16:36:09;6.85;;;2.60;;
29430;SDS011;16404;49.902;10.074;2023-05-27T16:38:53;5.68;;;2.55;;
29430;SDS011;16404;49.902;10.074;2023-05-27T16:41:38;4.25;;;2.47;;
29430;SDS011;16404;49.902;10.074;2023-05-27T16:44:23;9.07;;;3.10;;
29430;SDS011;16404;49.902;10.074;2023-05-27T16:47:07;7.13;;;2.88;;
29430;SDS011;16404;49.902;10.074;2023-05-27T16:49:52;9.35;;;2.60;;
29430;SDS011;16404;49.902;10.074;2023-05-27T16:52:36;6.50;;;2.70;;
29430;SDS011;16404;49.902;10.074;2023-05-27T16:55:21;7.80;;;2.80;;
29430;SDS011;16404;49.902;10.074;2023-05-27T16:58:06;9.48;;;2.72;;
29430;SDS011;16404;49.902;10.074;2023-05-27T17:00:54;6.75;;;3.17;;
29430;SDS011;16404;49.902;10.074;2023-05-27T17:03:42;11.23;;;3.25;;